createdAt,value
2019-03-26T00:08:06.058Z,92841.84
2019-03-26T00:23:39.145Z,92859.79
2019-03-26T00:39:13.114Z,92876.27
2019-03-26T00:54:46.535Z,92886.33
2019-03-26T01:10:20.762Z,92912.20
2019-03-26T01:25:53.614Z,92902.95
2019-03-26T01:41:26.453Z,92921.40
2019-03-26T01:56:59.519Z,92949.47
2019-03-26T02:12:32.495Z,92961.79
2019-03-26T02:28:05.679Z,92972.70
2019-03-26T02:43:38.638Z,92981.61
2019-03-26T02:59:12.115Z,93017.97
2019-03-26T03:14:45.397Z,93040.71
2019-03-26T03:30:18.139Z,93076.67
2019-03-26T03:45:51.868Z,93112.08
2019-03-26T04:01:24.846Z,93149.28
2019-03-26T04:16:57.946Z,93167.52
2019-03-26T04:32:31.570Z,93188.23
2019-03-26T04:48:04.617Z,93209.30
2019-03-26T05:03:37.352Z,93224.66
2019-03-26T05:19:10.430Z,93245.30
2019-03-26T05:34:43.276Z,93257.34
2019-03-26T05:50:16.728Z,93259.58
2019-03-26T06:05:49.565Z,93256.36
2019-03-26T06:21:22.708Z,93265.55
2019-03-26T06:36:55.725Z,93269.77
2019-03-26T06:52:28.486Z,93283.31
2019-03-26T07:08:01.558Z,93286.69
2019-03-26T07:23:34.936Z,93288.76
2019-03-26T07:39:08.183Z,93305.22
2019-03-26T07:54:41.337Z,93305.45
2019-03-26T08:10:14.662Z,93315.93
2019-03-26T08:25:47.755Z,93335.09
2019-03-26T08:40:51.311Z,93340.03
2019-03-26T08:55:53.975Z,93346.86
2019-03-26T09:10:56.597Z,93334.83
2019-03-26T09:26:00.027Z,93332.22
2019-03-26T09:41:02.640Z,93348.34
2019-03-26T09:56:07.557Z,93349.66
2019-03-26T10:11:11.701Z,93366.82
2019-03-26T10:26:14.316Z,93371.02
2019-03-26T10:41:18.871Z,93377.70
2019-03-26T10:56:21.705Z,93377.84
2019-03-26T11:11:24.339Z,93376.48
2019-03-26T11:26:29.278Z,93365.97
2019-03-26T11:41:32.875Z,93378.22
2019-03-26T11:56:37.277Z,93372.84
2019-03-26T12:11:40.656Z,93384.20
2019-03-26T12:26:44.445Z,93398.82
2019-03-26T12:41:46.990Z,93412.48
2019-03-26T12:56:52.230Z,93408.87
2019-03-26T13:11:56.936Z,93394.92
2019-03-26T13:27:30.476Z,93395.53
2019-03-26T13:43:03.646Z,93407.19
2019-03-26T13:58:36.969Z,93410.98
2019-03-26T14:14:09.713Z,93413.23
2019-03-26T14:29:42.507Z,93418.81
2019-03-26T14:45:15.457Z,93424.59
2019-03-26T15:00:48.857Z,93423.06
2019-03-26T15:16:22.131Z,93432.20
2019-03-26T15:31:55.458Z,93462.86
2019-03-26T15:47:29.093Z,93477.84
2019-03-26T16:03:02.629Z,93484.73
2019-03-26T16:18:35.618Z,93497.97
2019-03-26T16:34:08.565Z,93510.34
2019-03-26T16:49:42.023Z,93522.11
2019-03-26T17:05:14.971Z,93543.14
2019-03-26T17:20:47.545Z,93562.84
2019-03-26T17:36:21.084Z,93579.42
2019-03-26T17:51:54.662Z,93601.39
2019-03-26T18:07:27.898Z,93620.30
2019-03-26T18:23:01.056Z,93641.17
2019-03-26T18:38:35.224Z,93657.76
2019-03-26T18:54:08.099Z,93664.08
2019-03-26T19:09:41.022Z,93668.80
2019-03-26T19:25:14.067Z,93682.70
2019-03-26T19:40:47.179Z,93691.36
2019-03-26T19:56:20.558Z,93709.38
2019-03-26T20:11:53.415Z,93722.71
2019-03-26T20:27:27.363Z,93724.02
2019-03-26T20:43:00.937Z,93738.35
2019-03-26T20:58:34.552Z,93744.77
2019-03-26T21:14:07.774Z,93765.57
2019-03-26T21:29:40.829Z,93776.32
2019-03-26T21:45:13.697Z,93799.37
2019-03-26T22:00:46.874Z,93821.55
2019-03-26T22:16:20.246Z,93828.91
2019-03-26T22:31:53.667Z,93817.78
2019-03-26T22:47:26.508Z,93837.21
2019-03-26T23:02:59.188Z,93835.93
2019-03-26T23:18:32.113Z,93841.84
2019-03-26T23:34:05.426Z,93844.13
2019-03-26T23:49:38.567Z,93846.34
